Insider Trading activities of Hd Supply Holdings, Inc. insiders. , Part 2

Monthly summaries of insider trading activities (stock purchases, sales, and option exercises) reported by insiders of Hd Supply Holdings, Inc. since 2005 are illustrated in Table 1 and Table 2. Table 1 shows the monthly insider trading data of Hd Supply Holdings, Inc. since year 2005. (See page 1 of this report.) Table 2 shows the detailed insider transactions of Hd Supply Holdings, Inc. since 2005. The reporting company's ticker symbol is HDS. The reporting company's CIK number is 1573097.
The total value of stock buying since 2005 is $2,245,557.
The total value of stock sales since 2005 is $5,783,979,993.
The total value of stock option exercises since 2005 is $77,192,320.


 1   2 

Table 2. Detailed insider stock purchases, sales, and option exercises of Hd Supply Holdings, Inc. insiders (HDS) , Part 2
  Trade Date   Insider Name Trade Type     Shares       Price ($)   Value ($)
2015-04-07 Deangelo Joseph J (Chairman, President and CEO) Sale 320,000 32.00 10,240,000
2015-04-07 Deangelo Joseph J (Chairman, President and CEO) Option Ex 300,000 8.30 2,490,000
2015-04-06 Webb Jerry (CEO, HD Supply Waterworks) Sale 40,000 31.88 1,275,040
2015-04-06 Webb Jerry (CEO, HD Supply Waterworks) Option Ex 40,000 8.30 332,000
2015-04-02 Levitt Evan (Senior Vice President and CFO) Sale 3,713 31.75 117,887
2015-03-30 Stegeman John (President, HD Supply White Cap) Sale 43,333 31.13 1,348,956
2015-03-30 Stegeman John (President, HD Supply White Cap) Option Ex 43,333 8.30 359,663
2015-03-30 Chaibi Anesa (Pres&CEO, HD Supply Fac Maint) Sale 30,414 31.30 951,958
2015-03-30 Chaibi Anesa (Pres&CEO, HD Supply Fac Maint) Option Ex 30,414 8.30 252,436
2015-03-13 Levitt Evan (Senior Vice President and CFO) Sale 6,600 30.00 198,000
2015-03-10 Levitt Evan (Senior Vice President and CFO) Sale 5,286 28.97 153,156
2015-03-10 Webb Jerry (CEO, HD Supply Waterworks) Sale 2,833 28.99 82,137
2015-03-10 Stegeman John (President, HD Supply White Cap) Sale 2,526 28.99 73,238
2015-03-10 Newman Margaret (Senior Vice President, HR) Sale 1,892 29.02 54,903
2015-03-10 Chaibi Anesa (Pres&CEO, HD Supply Fac Maint) Sale 3,914 28.98 113,439
2015-03-10 Deangelo Joseph J (President and CEO) Sale 15,086 28.95 436,679
2015-03-06 Levitt Evan (Senior Vice President and CFO) Option Ex 15,599 29.02 452,682
2015-03-06 Webb Jerry (CEO, HD Supply Waterworks) Option Ex 5,840 29.02 169,476
2015-03-06 Stegeman John (President, HD Supply White Cap) Option Ex 7,489 29.02 217,330
2015-03-06 Newman Margaret (Senior Vice President, HR) Option Ex 5,568 29.02 161,583
2015-03-06 Chaibi Anesa (Pres&CEO, HD Supply Fac Maint) Option Ex 11,398 29.02 330,769
2015-03-06 Deangelo Joseph J (President and CEO) Option Ex 41,322 29.02 1,199,164
2015-02-24 Stegeman John (President, HD Supply White Cap) Sale 16,000 30.07 481,056
2015-02-24 Stegeman John (President, HD Supply White Cap) Option Ex 16,000 8.30 132,800
2015-02-24 Chaibi Anesa (Pres&CEO, HD Supply Fac Maint) Sale 26,758 30.30 810,767
2015-02-24 Chaibi Anesa (Pres&CEO, HD Supply Fac Maint) Option Ex 26,758 8.30 222,091
2015-01-12 Ledford Gregory S Option Ex 4,125 28.34 116,902
2015-01-08 Webb Jerry (CEO, HD Supply Waterworks) Sale 50,000 28.71 1,435,750
2015-01-08 Webb Jerry (CEO, HD Supply Waterworks) Option Ex 50,000 8.30 415,000
2014-12-29 Nunez Ricardo J (Senior VP/GC & Corp Sec) Sale 14,300 30.03 429,386
2014-12-29 Nunez Ricardo J (Senior VP/GC & Corp Sec) Option Ex 14,300 8.30 118,690
2014-12-26 Nunez Ricardo J (Senior VP/GC & Corp Sec) Sale 5,700 30.00 171,028
2014-12-26 Nunez Ricardo J (Senior VP/GC & Corp Sec) Option Ex 5,700 8.30 47,310
2014-12-18 Berges James G Buy 35,350 28.23 997,859
2014-12-17 Mcnamee Patrick Buy 7,500 27.27 204,487
2014-12-16 Cd&r Associates Vii (co-investment), Ltd (10% Owner) Sale 18,290,178 27.20 497,492,841
2014-12-16 Carlyle Holdings Ii L.p. (10% Owner) Sale 18,295,193 27.20 497,629,249
2014-12-16 Cp V Coinvestment B, L.p. (10% Owner) Sale 18,295,193 27.20 497,629,249
2014-12-04 Stegeman John (President, HD Supply White Cap) Sale 31,562 30.02 947,491
2014-12-04 Stegeman John (President, HD Supply White Cap) Option Ex 31,562 8.30 261,964
2014-12-04 Nunez Ricardo J (Senior VP/GC & Corp Sec) Sale 10,000 30.02 300,200
2014-12-04 Nunez Ricardo J (Senior VP/GC & Corp Sec) Option Ex 10,000 8.30 83,000
2014-12-04 Deangelo Joseph J (President and CEO) Sale 274,100 30.00 8,223,000
2014-12-04 Deangelo Joseph J (President and CEO) Option Ex 234,100 8.30 1,943,030
2014-12-03 Levitt Evan (Senior Vice President and CFO) Sale 10,000 29.75 297,500
2014-12-03 Levitt Evan (Senior Vice President and CFO) Option Ex 10,000 8.30 83,000
2014-12-02 Stegeman John (President, HD Supply White Cap) Sale 4,200 29.00 121,800
2014-12-02 Stegeman John (President, HD Supply White Cap) Option Ex 4,200 8.30 34,860
2014-12-01 Stegeman John (President, HD Supply White Cap) Sale 4,238 28.54 120,952
2014-12-01 Stegeman John (President, HD Supply White Cap) Option Ex 4,238 8.30 35,175
2014-11-05 Stegeman John (President, HD Supply White Cap) Sale 12,147 29.01 352,384
2014-11-05 Stegeman John (President, HD Supply White Cap) Option Ex 12,147 8.30 100,820
2014-11-03 Stegeman John (President, HD Supply White Cap) Sale 6,919 28.94 200,235
2014-11-03 Stegeman John (President, HD Supply White Cap) Option Ex 6,919 8.30 57,427
2014-11-03 Newman Margaret (Senior Vice President, HR) Sale 25,247 28.96 731,153
2014-11-03 Newman Margaret (Senior Vice President, HR) Option Ex 25,247 8.30 209,550
2014-10-28 Stegeman John (President, HD Supply White Cap) Sale 4,219 28.00 118,132
2014-10-28 Stegeman John (President, HD Supply White Cap) Option Ex 4,219 8.30 35,017
2014-10-22 Zide Stephen M (Director) Option Ex 8,704 26.61 231,613
2014-10-07 Webb Jerry (CEO, HD Supply Waterworks) Sale 90,000 26.97 2,427,300
2014-10-07 Webb Jerry (CEO, HD Supply Waterworks) Option Ex 90,000 8.30 747,000
2014-10-06 Newman Margaret (Senior Vice President, HR) Sale 25,242 27.35 690,368
2014-10-06 Newman Margaret (Senior Vice President, HR) Option Ex 25,242 8.30 209,508
2014-09-18 Margolius Steven (Pres-HD Supply Power Solutions) Sale 32,924 29.00 954,796
2014-09-18 Margolius Steven (Pres-HD Supply Power Solutions) Option Ex 32,924 8.30 273,269
2014-09-18 Stegeman John (President, HD Supply White Cap) Sale 35,781 29.00 1,037,649
2014-09-18 Stegeman John (President, HD Supply White Cap) Option Ex 35,781 8.30 296,982
2014-09-18 Nunez Ricardo J (Senior VP/GC & Corp Sec) Sale 10,000 29.00 290,000
2014-09-18 Nunez Ricardo J (Senior VP/GC & Corp Sec) Option Ex 10,000 8.30 83,000
2014-09-18 Deangelo Joseph J (President and CEO) Sale 117,050 29.00 3,394,450
2014-09-18 Deangelo Joseph J (President and CEO) Option Ex 117,050 8.30 971,515
2014-09-17 Cd&r Associates Vii (co-investment), Ltd (10% Owner) Sale 8,166,416 27.52 224,715,269
2014-09-17 Carlyle Holdings Ii L.p. (10% Owner) Sale 8,168,655 27.52 224,776,879
2014-09-17 Cp V Coinvestment B, L.p. (10% Owner) Sale 8,168,655 27.52 224,776,879
2014-09-09 Stegeman John (President, HD Supply White Cap) Sale 4,219 28.21 119,017
2014-09-09 Stegeman John (President, HD Supply White Cap) Option Ex 4,219 8.30 35,017
2014-09-05 Bernasek Brian A Option Ex 7,967 27.62 220,048
2014-09-02 Newman Margaret (Senior Vice President, HR) Sale 25,242 27.25 687,970
2014-09-02 Newman Margaret (Senior Vice President, HR) Option Ex 25,242 8.30 209,508
2014-08-21 Stegeman John (President, HD Supply White Cap) Sale 37,971 28.01 1,063,567
2014-08-21 Stegeman John (President, HD Supply White Cap) Option Ex 37,971 .00 0
2014-08-18 Margolius Steven (Pres-HD Supply Power Solutions) Sale 69,124 27.00 1,866,348
2014-08-18 Margolius Steven (Pres-HD Supply Power Solutions) Option Ex 69,124 8.30 573,729
2014-06-08 Stegeman John (Pres, HD Supply C&I-White Cap) Option Ex 43,334 8.30 359,672
2014-06-04 Cd&r Associates Vii (co-investment), Ltd (10% Owner) Sale 1,305,415 25.09 32,752,862
2014-06-04 Carlyle Holdings Ii L.p. (10% Owner) Sale 1,305,773 25.09 32,761,844
2014-06-04 Cp V Coinvestment B, L.p. (10% Owner) Sale 1,305,773 25.09 32,761,844
2014-06-04 Bain Capital Integral Investors 2006, Llc (10% Owner) Sale 1,305,773 25.09 32,761,844
2014-06-04 Zide Stephen M (Director) Sale 1,305,773 25.09 32,761,844
2014-06-04 Edgerley Paul B (Director) Sale 1,305,773 25.09 32,761,844
2014-05-15 Mcnamee Patrick Option Ex 3,096 .00 0
2014-05-15 Alden John W Option Ex 432 .00 0
2014-05-15 Atkins Betsy S Option Ex 3,096 .00 0
2014-05-07 Cd&r Associates Vii (co-investment), Ltd (10% Owner) Sale 8,699,866 25.09 218,279,637
2014-05-07 Stegeman John (President, HD Supply White Cap) Sale 10,000 26.00 260,000
2014-05-07 Carlyle Holdings Ii L.p. (10% Owner) Sale 8,702,251 25.09 218,339,477
2014-05-07 Cp V Coinvestment B, L.p. (10% Owner) Sale 8,702,251 25.09 218,339,477
2014-05-07 Bain Capital Integral Investors 2006, Llc (10% Owner) Sale 8,702,252 25.09 218,339,502
2014-05-07 Zide Stephen M (Director) Sale 8,702,252 25.09 218,339,502
2014-05-07 Edgerley Paul B (Director) Sale 8,702,252 25.09 218,339,502
2014-03-26 Chaibi Anesa (Pres&CEO, HD Supply Fac Maint) Sale 172 26.03 4,477
2014-03-26 Chaibi Anesa (Pres&CEO, HD Supply Fac Maint) Option Ex 172 8.30 1,427
2014-03-25 Chaibi Anesa (Pres&CEO, HD Supply Fac Maint) Sale 53,345 25.01 1,334,265
2014-03-25 Chaibi Anesa (Pres&CEO, HD Supply Fac Maint) Option Ex 53,345 8.30 442,763
2014-03-10 Newman Margaret (Senior Vice President, HR) Sale 25,242 23.93 604,091
2014-03-10 Newman Margaret (Senior Vice President, HR) Option Ex 25,242 8.30 209,508
2014-02-10 Newman Margaret (Senior Vice President, Human R) Sale 25,242 21.62 545,757
2014-02-10 Newman Margaret (Senior Vice President, Human R) Option Ex 25,242 8.30 209,508
2014-01-10 Chaibi Anesa (Pres&CEO, HD Supply Fac Maint) Sale 26,658 24.05 641,204
2014-01-10 Chaibi Anesa (Pres&CEO, HD Supply Fac Maint) Option Ex 26,658 8.30 221,261
2014-01-03 Chaibi Anesa (Pres&CEO, HD Supply Fac Maint) Sale 100 24.03 2,403
2014-01-03 Chaibi Anesa (Pres&CEO, HD Supply Fac Maint) Option Ex 100 8.30 830
2013-12-30 Margolius Steven (President, HD Supply Power Sol) Sale 41,000 24.15 989,986
2013-12-30 Margolius Steven (President, HD Supply Power Sol) Option Ex 35,000 8.30 290,500
2013-09-12 Peffer Charles Buy 2,000 22.90 45,800
2013-09-01 Klessel Lewis (Director) Option Ex 369 .00 0
 1   2 

Insider trading activities including stock purchases, stock sales, and option exercises of HDS listed in the above tables cannot be completely guaranteed as to their accuracy. For more insider trading information of Hd Supply Holdings, Inc. (symbol HDS, CIK number 1573097) see the Securities and Exchange Commission (SEC) website.